createdAt,value
2022-12-24T00:00:24.707Z,100135.19
2022-12-24T00:02:52.558Z,100121.75
2022-12-24T00:05:20.380Z,100099.81
2022-12-24T00:07:48.140Z,100111.38
2022-12-24T00:10:15.845Z,100122.28
2022-12-24T00:12:43.593Z,100124.72
2022-12-24T00:15:13.108Z,100114.16
2022-12-24T00:17:40.825Z,100095.50
2022-12-24T00:20:09.988Z,100097.91
2022-12-24T00:22:37.709Z,100110.31
2022-12-24T00:25:06.525Z,100087.66
2022-12-24T00:27:34.263Z,100086.22
2022-12-24T00:30:01.991Z,100089.78
2022-12-24T00:32:31.371Z,100081.91
2022-12-24T00:34:59.130Z,100091.31
2022-12-24T00:37:26.900Z,100110.03
2022-12-24T00:39:54.637Z,100116.38
2022-12-24T00:42:22.348Z,100093.94
2022-12-24T00:44:50.110Z,100104.03
2022-12-24T00:47:17.839Z,100096.06
2022-12-24T00:49:47.046Z,100106.16
2022-12-24T00:52:14.818Z,100104.84
2022-12-24T00:54:42.542Z,100101.28
2022-12-24T00:57:10.304Z,100083.69
2022-12-24T00:59:38.003Z,100079.34
2022-12-24T01:02:05.907Z,100094.28
2022-12-24T01:04:50.991Z,100085.59
2022-12-24T01:07:20.211Z,100079.25
2022-12-24T01:09:47.938Z,100100.09
2022-12-24T01:12:15.688Z,100121.22
2022-12-24T01:14:43.390Z,100131.41
2022-12-24T01:17:11.168Z,100128.91
2022-12-24T01:19:38.899Z,100136.91
2022-12-24T01:22:06.652Z,100132.81
2022-12-24T01:24:36.146Z,100137.56
2022-12-24T01:27:03.886Z,100138.19
2022-12-24T01:29:31.615Z,100120.94
2022-12-24T01:31:59.411Z,100126.47
2022-12-24T01:34:27.165Z,100146.72
2022-12-24T01:36:54.891Z,100150.97
2022-12-24T01:39:22.637Z,100173.50
2022-12-24T01:42:09.373Z,100152.25
2022-12-24T01:44:41.882Z,100144.19
2022-12-24T01:47:15.282Z,100156.47
2022-12-24T01:49:46.456Z,100145.63
2022-12-24T01:52:18.040Z,100169.03
2022-12-24T01:54:51.636Z,100140.28
2022-12-24T01:57:25.514Z,100149.66
2022-12-24T01:59:57.905Z,100168.91
2022-12-24T02:02:27.215Z,100169.63
2022-12-24T02:05:00.036Z,100160.22
2022-12-24T02:07:28.005Z,100176.94
2022-12-24T02:09:58.744Z,100186.09
2022-12-24T02:12:29.847Z,100182.31
2022-12-24T02:14:58.021Z,100179.91
2022-12-24T02:17:32.929Z,100187.38
2022-12-24T02:20:31.862Z,100183.50
2022-12-24T02:23:13.430Z,100198.88
2022-12-24T02:25:59.332Z,100202.66
2022-12-24T02:28:41.589Z,100178.63
2022-12-24T02:31:17.166Z,100169.34
2022-12-24T02:33:50.629Z,100177.06
2022-12-24T02:36:24.505Z,100189.47
2022-12-24T02:38:58.911Z,100192.03
2022-12-24T02:41:51.080Z,100167.94
2022-12-24T02:44:21.260Z,100179.25
2022-12-24T02:46:51.967Z,100184.63
2022-12-24T02:49:19.903Z,100189.28
2022-12-24T02:51:47.649Z,100186.22
2022-12-24T02:54:16.189Z,100191.72
2022-12-24T02:57:00.948Z,100187.53
2022-12-24T02:59:49.048Z,100174.88
2022-12-24T03:02:27.920Z,100167.84
2022-12-24T03:05:04.161Z,100169.94
2022-12-24T03:07:39.305Z,100173.56
2022-12-24T03:10:21.642Z,100195.38
2022-12-24T03:12:52.609Z,100196.53
2022-12-24T03:15:23.115Z,100210.38
2022-12-24T03:17:55.340Z,100197.44
2022-12-24T03:20:27.757Z,100191.72
2022-12-24T03:22:55.698Z,100179.56
2022-12-24T03:25:26.674Z,100172.97
2022-12-24T03:27:56.971Z,100175.47
2022-12-24T03:30:25.263Z,100174.66
2022-12-24T03:32:54.531Z,100175.38
2022-12-24T03:35:22.478Z,100193.50
2022-12-24T03:37:50.193Z,100193.19
2022-12-24T03:40:18.060Z,100201.38
2022-12-24T03:42:45.797Z,100211.66
2022-12-24T03:45:13.530Z,100193.97
2022-12-24T03:47:41.320Z,100190.28
2022-12-24T03:50:11.004Z,100193.56
2022-12-24T03:52:38.773Z,100183.97
2022-12-24T03:55:07.084Z,100196.47
2022-12-24T03:57:34.879Z,100190.91
2022-12-24T04:00:03.609Z,100194.56
2022-12-24T04:02:32.153Z,100203.91
2022-12-24T04:04:59.973Z,100211.97
2022-12-24T04:07:29.047Z,100201.72
2022-12-24T04:09:56.779Z,100204.88
2022-12-24T04:12:24.562Z,100233.44
2022-12-24T04:14:52.324Z,100234.47
2022-12-24T04:17:20.057Z,100241.53
2022-12-24T04:19:47.774Z,100248.97
2022-12-24T04:22:15.503Z,100256.84
2022-12-24T04:24:44.693Z,100239.69
2022-12-24T04:27:14.382Z,100242.56
2022-12-24T04:29:42.102Z,100254.31
2022-12-24T04:32:11.168Z,100266.47
2022-12-24T04:34:38.975Z,100277.72
2022-12-24T04:37:07.105Z,100278.44
2022-12-24T04:39:34.862Z,100265.69
2022-12-24T04:42:03.987Z,100278.31
2022-12-24T04:44:31.693Z,100285.09
2022-12-24T04:46:59.443Z,100275.53
2022-12-24T04:49:27.310Z,100259.44
2022-12-24T04:51:55.041Z,100255.88
2022-12-24T04:54:22.771Z,100245.50
2022-12-24T04:56:50.517Z,100237.28
2022-12-24T04:59:19.600Z,100228.78
2022-12-24T05:01:47.563Z,100225.28
2022-12-24T05:04:15.475Z,100248.19
2022-12-24T05:06:43.224Z,100253.75
2022-12-24T05:09:10.967Z,100273.13
2022-12-24T05:11:38.705Z,100287.91
2022-12-24T05:14:06.451Z,100290.63
2022-12-24T05:16:35.641Z,100290.69
2022-12-24T05:19:03.423Z,100302.03
2022-12-24T05:21:31.183Z,100300.22
2022-12-24T05:24:16.471Z,100294.75
2022-12-24T05:26:47.492Z,100311.94
2022-12-24T05:29:15.318Z,100299.03
2022-12-24T05:31:45.461Z,100296.13
2022-12-24T05:34:15.002Z,100297.13
2022-12-24T05:36:43.190Z,100313.25
2022-12-24T05:39:15.955Z,100308.09
2022-12-24T05:41:44.324Z,100315.47
2022-12-24T05:44:12.187Z,100329.13
2022-12-24T05:46:40.158Z,100333.41
2022-12-24T05:49:09.677Z,100333.53
2022-12-24T05:51:37.618Z,100337.06
2022-12-24T05:54:05.832Z,100352.97
2022-12-24T05:56:34.063Z,100349.03
2022-12-24T05:59:01.809Z,100353.00
2022-12-24T06:01:29.630Z,100354.47
2022-12-24T06:03:58.435Z,100360.47
2022-12-24T06:06:29.162Z,100360.91
2022-12-24T06:08:57.317Z,100352.00
2022-12-24T06:11:27.437Z,100346.31
2022-12-24T06:13:55.332Z,100352.03
2022-12-24T06:16:25.517Z,100356.72
2022-12-24T06:18:53.476Z,100349.00
2022-12-24T06:21:21.721Z,100355.16
2022-12-24T06:23:50.908Z,100345.91
2022-12-24T06:26:20.479Z,100340.72
2022-12-24T06:28:50.822Z,100335.22
2022-12-24T06:31:21.457Z,100337.41
2022-12-24T06:33:49.727Z,100344.81
2022-12-24T06:36:19.310Z,100339.91
2022-12-24T06:38:47.768Z,100327.63
2022-12-24T06:41:17.981Z,100327.22
2022-12-24T06:43:46.875Z,100319.78
2022-12-24T06:46:15.320Z,100332.09
2022-12-24T06:48:45.254Z,100322.19
2022-12-24T06:51:13.062Z,100330.91
2022-12-24T06:53:41.184Z,100340.78
2022-12-24T06:56:10.733Z,100327.22
2022-12-24T06:58:41.115Z,100324.31
2022-12-24T07:01:10.909Z,100325.63
2022-12-24T07:03:38.879Z,100333.97
2022-12-24T07:06:07.735Z,100342.63
2022-12-24T07:08:36.413Z,100342.44
2022-12-24T07:11:04.871Z,100350.84
2022-12-24T07:13:34.271Z,100356.72
2022-12-24T07:16:05.361Z,100349.75
2022-12-24T07:18:33.792Z,100346.13
2022-12-24T07:21:01.920Z,100350.31
2022-12-24T07:23:31.219Z,100345.66
2022-12-24T07:26:01.125Z,100347.16
2022-12-24T07:28:28.918Z,100350.84
2022-12-24T07:30:56.825Z,100359.25
2022-12-24T07:33:27.093Z,100358.00
2022-12-24T07:36:00.483Z,100362.88
2022-12-24T07:38:30.219Z,100355.34
2022-12-24T07:40:58.566Z,100342.88
2022-12-24T07:43:26.541Z,100342.03
2022-12-24T07:45:56.771Z,100346.00
2022-12-24T07:48:26.362Z,100354.13
2022-12-24T07:50:54.140Z,100370.44
2022-12-24T07:53:22.574Z,100372.19
2022-12-24T07:55:50.523Z,100365.88
2022-12-24T07:58:18.631Z,100374.81
2022-12-24T08:00:46.879Z,100370.94
2022-12-24T08:03:17.859Z,100375.69
2022-12-24T08:05:47.851Z,100370.69
2022-12-24T08:08:15.762Z,100377.16
2022-12-24T08:10:45.346Z,100357.50
2022-12-24T08:13:13.801Z,100370.56
2022-12-24T08:15:41.626Z,100369.63
2022-12-24T08:18:09.735Z,100372.88
2022-12-24T08:20:39.444Z,100381.50
2022-12-24T08:23:09.123Z,100381.25
2022-12-24T08:25:37.721Z,100388.25
2022-12-24T08:28:06.234Z,100397.19
2022-12-24T08:30:34.184Z,100401.84
2022-12-24T08:33:02.104Z,100418.84
2022-12-24T08:35:30.101Z,100409.28
2022-12-24T08:37:58.155Z,100422.72
2022-12-24T08:40:27.962Z,100430.72
2022-12-24T08:42:55.896Z,100436.19
2022-12-24T08:45:23.760Z,100445.06
2022-12-24T08:47:51.508Z,100460.28
2022-12-24T08:50:19.359Z,100467.59
2022-12-24T08:52:47.112Z,100478.81
2022-12-24T08:55:14.866Z,100468.03
2022-12-24T08:57:43.982Z,100476.50
2022-12-24T09:00:14.008Z,100471.47
2022-12-24T09:02:41.840Z,100496.78
2022-12-24T09:05:10.062Z,100493.53
2022-12-24T09:07:38.130Z,100501.06
2022-12-24T09:10:07.634Z,100507.81
2022-12-24T09:12:35.334Z,100507.81
2022-12-24T09:15:08.132Z,100508.44
2022-12-24T09:17:36.379Z,100526.31
2022-12-24T09:20:04.464Z,100525.41
2022-12-24T09:22:32.180Z,100537.59
2022-12-24T09:24:59.903Z,100539.63
2022-12-24T09:27:27.620Z,100521.38
2022-12-24T09:29:55.357Z,100518.66
2022-12-24T09:32:24.952Z,100519.84
2022-12-24T09:34:52.719Z,100531.59
2022-12-24T09:37:20.485Z,100527.88
2022-12-24T09:39:48.618Z,100530.91
2022-12-24T09:42:28.177Z,100515.50
2022-12-24T09:45:17.885Z,100535.06
2022-12-24T09:47:50.646Z,100524.06
2022-12-24T09:50:36.781Z,100528.47
2022-12-24T09:53:14.002Z,100517.06
2022-12-24T09:55:45.376Z,100520.13
2022-12-24T09:58:21.347Z,100513.34
2022-12-24T10:00:50.164Z,100513.22
2022-12-24T10:03:19.840Z,100540.09
2022-12-24T10:05:57.686Z,100533.50
2022-12-24T10:08:32.453Z,100515.09
2022-12-24T10:11:08.260Z,100502.91
2022-12-24T10:13:48.958Z,100509.19
2022-12-24T10:16:24.134Z,100518.78
2022-12-24T10:19:01.321Z,100516.38
2022-12-24T10:21:40.753Z,100519.53
2022-12-24T10:24:15.621Z,100525.75
2022-12-24T10:26:53.728Z,100531.94
2022-12-24T10:29:26.724Z,100539.06
2022-12-24T10:31:57.838Z,100523.91
2022-12-24T10:34:31.807Z,100527.16
2022-12-24T10:37:00.431Z,100518.31
2022-12-24T10:39:28.331Z,100525.06
2022-12-24T10:41:58.666Z,100518.13
2022-12-24T10:44:29.698Z,100519.25
2022-12-24T10:46:57.487Z,100516.28
2022-12-24T10:49:34.833Z,100516.03
2022-12-24T10:52:06.664Z,100516.13
2022-12-24T10:54:39.436Z,100530.78
2022-12-24T10:57:24.304Z,100535.78
2022-12-24T10:59:55.111Z,100548.50
2022-12-24T11:02:32.280Z,100545.72
2022-12-24T11:05:03.217Z,100558.06
2022-12-24T11:07:32.517Z,100551.19
2022-12-24T11:10:01.982Z,100551.22
2022-12-24T11:12:32.367Z,100548.78
2022-12-24T11:15:03.407Z,100554.50
2022-12-24T11:17:32.034Z,100527.66
2022-12-24T11:20:03.341Z,100537.91
2022-12-24T11:22:33.561Z,100554.28
2022-12-24T11:25:05.351Z,100565.88
2022-12-24T11:27:40.440Z,100556.22
2022-12-24T11:30:21.624Z,100568.03
2022-12-24T11:32:51.020Z,100570.19
2022-12-24T11:35:23.442Z,100566.97
2022-12-24T11:38:10.996Z,100569.94
2022-12-24T11:40:42.011Z,100557.50
2022-12-24T11:43:16.375Z,100573.50
2022-12-24T11:45:51.264Z,100571.75
2022-12-24T11:48:31.523Z,100574.72
2022-12-24T11:51:02.445Z,100585.00
2022-12-24T11:53:37.288Z,100575.22
2022-12-24T11:56:14.229Z,100575.19
2022-12-24T11:58:47.341Z,100582.66
2022-12-24T12:01:21.560Z,100551.31
2022-12-24T12:03:51.394Z,100554.63
2022-12-24T12:06:28.698Z,100549.28
2022-12-24T12:09:00.920Z,100566.69
2022-12-24T12:11:29.880Z,100568.84
2022-12-24T12:14:01.221Z,100569.09
2022-12-24T12:16:53.525Z,100553.53
2022-12-24T12:19:26.561Z,100550.88
2022-12-24T12:21:56.150Z,100543.91
2022-12-24T12:24:32.433Z,100550.78
2022-12-24T12:27:10.147Z,100533.63
2022-12-24T12:29:43.757Z,100539.47
2022-12-24T12:32:23.781Z,100540.78
2022-12-24T12:35:02.700Z,100547.13
2022-12-24T12:37:36.495Z,100543.22
2022-12-24T12:40:05.444Z,100535.81
2022-12-24T12:42:36.010Z,100530.94
2022-12-24T12:45:34.025Z,100525.47
2022-12-24T12:48:29.775Z,100513.19
2022-12-24T12:51:04.902Z,100520.34
2022-12-24T12:53:46.046Z,100520.84
2022-12-24T12:56:31.820Z,100526.09
2022-12-24T12:59:04.575Z,100530.03
2022-12-24T13:01:43.195Z,100534.22
2022-12-24T13:04:48.280Z,100535.66
2022-12-24T13:07:55.243Z,100539.34
2022-12-24T13:10:46.463Z,100547.50
2022-12-24T13:13:33.482Z,100555.00
2022-12-24T13:16:31.124Z,100557.47
2022-12-24T13:19:09.479Z,100558.34
2022-12-24T13:21:37.379Z,100561.56
2022-12-24T13:24:17.682Z,100559.78
2022-12-24T13:27:01.653Z,100566.59
2022-12-24T13:29:42.308Z,100559.19
2022-12-24T13:32:39.571Z,100575.31
2022-12-24T13:35:36.989Z,100579.97
2022-12-24T13:38:43.666Z,100580.44
2022-12-24T13:41:53.942Z,100586.41
2022-12-24T13:44:33.146Z,100596.38
2022-12-24T13:47:30.162Z,100598.41
2022-12-24T13:50:15.116Z,100596.09
2022-12-24T13:52:52.490Z,100592.78
2022-12-24T13:55:20.676Z,100600.28
2022-12-24T13:57:58.509Z,100603.41
2022-12-24T14:00:44.077Z,100595.16
2022-12-24T14:03:27.924Z,100598.38
2022-12-24T14:05:59.513Z,100600.78
2022-12-24T14:08:34.577Z,100606.53
2022-12-24T14:11:10.326Z,100600.19
2022-12-24T14:13:56.755Z,100604.97
2022-12-24T14:16:29.086Z,100620.38
2022-12-24T14:19:02.294Z,100612.97
2022-12-24T14:21:35.459Z,100630.41
2022-12-24T14:24:06.362Z,100628.13
2022-12-24T14:26:37.377Z,100629.47
2022-12-24T14:29:08.784Z,100658.28
2022-12-24T14:31:38.001Z,100676.09
2022-12-24T14:34:13.606Z,100691.69
2022-12-24T14:36:45.525Z,100681.75
2022-12-24T14:39:24.066Z,100705.63
2022-12-24T14:42:01.055Z,100734.88
2022-12-24T14:44:37.414Z,100709.22
2022-12-24T14:47:20.897Z,100703.91
2022-12-24T14:50:02.107Z,100733.41
2022-12-24T14:53:04.619Z,100729.84
2022-12-24T14:55:32.947Z,100738.06
2022-12-24T14:58:23.877Z,100751.38
2022-12-24T15:00:52.333Z,100753.63
2022-12-24T15:03:24.225Z,100760.97
2022-12-24T15:05:55.217Z,100768.09
2022-12-24T15:08:29.940Z,100744.69
2022-12-24T15:11:03.016Z,100737.88
2022-12-24T15:13:36.957Z,100740.09
2022-12-24T15:16:08.883Z,100770.34
2022-12-24T15:18:43.149Z,100791.59
2022-12-24T15:21:19.581Z,100798.81
2022-12-24T15:23:53.022Z,100811.03
2022-12-24T15:26:27.114Z,100794.66
2022-12-24T15:29:02.386Z,100803.47
2022-12-24T15:31:32.162Z,100794.94
2022-12-24T15:34:01.658Z,100771.16
2022-12-24T15:36:32.510Z,100757.72
2022-12-24T15:39:03.323Z,100763.13
2022-12-24T15:41:38.234Z,100770.78
2022-12-24T15:44:06.375Z,100797.59
2022-12-24T15:46:34.680Z,100805.03
2022-12-24T15:49:04.600Z,100816.97
2022-12-24T15:51:38.437Z,100810.56
2022-12-24T15:54:14.019Z,100847.53
2022-12-24T15:56:44.448Z,100881.97
2022-12-24T15:59:28.740Z,100856.53
2022-12-24T16:01:56.684Z,100869.28
2022-12-24T16:04:27.465Z,100901.22
2022-12-24T16:06:57.556Z,100894.50
2022-12-24T16:09:33.016Z,100916.53
2022-12-24T16:12:03.459Z,100952.72
2022-12-24T16:14:33.194Z,100960.88
2022-12-24T16:17:01.050Z,100956.97
2022-12-24T16:19:39.503Z,100949.53
2022-12-24T16:22:21.699Z,100960.91
2022-12-24T16:24:49.512Z,100930.47
2022-12-24T16:27:17.253Z,100935.53
2022-12-24T16:29:46.817Z,100969.38
2022-12-24T16:32:26.950Z,100967.78
2022-12-24T16:34:56.056Z,100955.19
2022-12-24T16:37:23.912Z,100956.34
2022-12-24T16:39:52.893Z,100980.72
2022-12-24T16:42:38.734Z,100990.66
2022-12-24T16:45:07.910Z,100997.81
2022-12-24T16:47:42.426Z,101011.91
2022-12-24T16:50:16.944Z,101034.97
2022-12-24T16:52:44.822Z,101034.97
2022-12-24T16:55:14.554Z,101038.81
2022-12-24T16:57:43.610Z,101052.84
2022-12-24T17:00:16.624Z,101061.13
2022-12-24T17:02:44.538Z,101055.22
2022-12-24T17:05:13.787Z,101044.25
2022-12-24T17:07:44.061Z,101048.28
2022-12-24T17:10:12.794Z,101073.72
2022-12-24T17:12:40.600Z,101092.59
2022-12-24T17:15:09.293Z,101096.94
2022-12-24T17:17:37.419Z,101106.50
2022-12-24T17:20:06.622Z,101125.03
2022-12-24T17:22:36.748Z,101118.75
2022-12-24T17:25:05.116Z,101118.88
2022-12-24T17:27:32.945Z,101140.06
2022-12-24T17:30:00.686Z,101146.13
2022-12-24T17:32:28.481Z,101133.78
2022-12-24T17:34:56.240Z,101169.72
2022-12-24T17:37:23.946Z,101190.94
2022-12-24T17:39:53.115Z,101184.31
2022-12-24T17:42:20.892Z,101206.31
2022-12-24T17:44:48.630Z,101232.94
2022-12-24T17:47:16.487Z,101257.69
2022-12-24T17:49:44.201Z,101250.00
2022-12-24T17:52:12.229Z,101253.81
2022-12-24T17:54:39.994Z,101246.59
2022-12-24T17:57:09.080Z,101238.53
2022-12-24T17:59:36.813Z,101229.38
2022-12-24T18:02:04.638Z,101216.66
2022-12-24T18:04:32.457Z,101219.19
2022-12-24T18:07:02.691Z,101208.66
2022-12-24T18:09:31.126Z,101225.63
2022-12-24T18:11:58.913Z,101198.97
2022-12-24T18:14:28.149Z,101195.19
2022-12-24T18:16:55.993Z,101198.50
2022-12-24T18:19:23.820Z,101180.63
2022-12-24T18:21:51.586Z,101188.09
2022-12-24T18:24:19.636Z,101191.31
2022-12-24T18:26:48.396Z,101188.34
2022-12-24T18:29:17.198Z,101176.75
2022-12-24T18:31:46.315Z,101178.13
2022-12-24T18:34:17.017Z,101195.28
2022-12-24T18:36:48.263Z,101210.47
2022-12-24T18:39:19.059Z,101221.75
2022-12-24T18:41:46.835Z,101208.59
2022-12-24T18:44:18.078Z,101204.41
2022-12-24T18:46:50.003Z,101226.50
2022-12-24T18:49:17.782Z,101217.47
2022-12-24T18:51:45.525Z,101221.41
2022-12-24T18:54:13.226Z,101230.06
2022-12-24T18:56:41.022Z,101234.28
2022-12-24T18:59:08.738Z,101228.53
2022-12-24T19:01:36.669Z,101263.28
2022-12-24T19:04:06.085Z,101282.63
2022-12-24T19:06:33.869Z,101303.06
2022-12-24T19:09:02.105Z,101326.94
2022-12-24T19:11:31.831Z,101332.31
2022-12-24T19:14:00.197Z,101360.47
2022-12-24T19:16:29.300Z,101353.13
2022-12-24T19:18:57.509Z,101335.41
2022-12-24T19:21:27.152Z,101340.38
2022-12-24T19:23:54.873Z,101349.19
2022-12-24T19:26:23.050Z,101350.66
2022-12-24T19:28:51.030Z,101380.22
2022-12-24T19:31:21.419Z,101386.78
2022-12-24T19:33:50.876Z,101355.66
2022-12-24T19:36:21.023Z,101348.63
2022-12-24T19:38:50.104Z,101344.50
2022-12-24T19:41:19.916Z,101337.00
2022-12-24T19:43:50.128Z,101377.41
2022-12-24T19:46:20.745Z,101371.44
2022-12-24T19:48:51.164Z,101364.16
2022-12-24T19:51:19.591Z,101357.06
2022-12-24T19:53:47.864Z,101313.03
2022-12-24T19:56:18.125Z,101250.44
2022-12-24T19:58:46.665Z,101238.41
2022-12-24T20:01:16.612Z,101235.19
2022-12-24T20:03:44.940Z,101218.00
2022-12-24T20:06:13.844Z,101233.38
2022-12-24T20:08:41.980Z,101245.28
2022-12-24T20:11:11.537Z,101220.03
2022-12-24T20:13:41.716Z,101248.47
2022-12-24T20:16:11.973Z,101267.00
2022-12-24T20:18:40.120Z,101233.38
2022-12-24T20:21:10.389Z,101234.16
2022-12-24T20:23:39.471Z,101208.97
2022-12-24T20:26:10.204Z,101237.16
2022-12-24T20:28:38.735Z,101226.22
2022-12-24T20:31:12.747Z,101192.44
2022-12-24T20:33:40.765Z,101182.53
2022-12-24T20:36:09.428Z,101176.88
2022-12-24T20:38:37.614Z,101194.88
2022-12-24T20:41:06.517Z,101191.03
2022-12-24T20:43:39.713Z,101173.44
2022-12-24T20:46:12.248Z,101189.09
2022-12-24T20:48:41.577Z,101190.25
2022-12-24T20:51:11.343Z,101169.59
2022-12-24T20:53:41.491Z,101159.97
2022-12-24T20:56:09.524Z,101152.19
2022-12-24T20:58:37.261Z,101143.25
2022-12-24T21:01:09.738Z,101159.41
2022-12-24T21:03:38.938Z,101131.25
2022-12-24T21:06:07.244Z,101154.53
2022-12-24T21:08:35.173Z,101182.38
2022-12-24T21:11:20.233Z,101177.16
2022-12-24T21:13:48.260Z,101179.53
2022-12-24T21:16:16.297Z,101214.25
2022-12-24T21:18:45.403Z,101249.06
2022-12-24T21:21:13.146Z,101230.13
2022-12-24T21:23:40.880Z,101206.22
2022-12-24T21:26:08.624Z,101213.81
2022-12-24T21:28:36.372Z,101239.69
2022-12-24T21:31:09.600Z,101246.31
2022-12-24T21:33:38.480Z,101256.00
2022-12-24T21:36:08.683Z,101239.28
2022-12-24T21:38:36.708Z,101263.03
2022-12-24T21:41:06.264Z,101273.25
2022-12-24T21:43:35.582Z,101297.47
2022-12-24T21:46:07.574Z,101267.59
2022-12-24T21:48:53.076Z,101300.28
2022-12-24T21:51:23.186Z,101280.75
2022-12-24T21:54:08.534Z,101276.88
2022-12-24T21:56:56.548Z,101319.16
2022-12-24T21:59:26.619Z,101343.31
2022-12-24T22:01:55.464Z,101338.22
2022-12-24T22:04:23.725Z,101349.78
2022-12-24T22:07:10.289Z,101360.06
2022-12-24T22:09:56.153Z,101391.31
2022-12-24T22:12:24.311Z,101364.97
2022-12-24T22:14:52.453Z,101373.25
2022-12-24T22:17:25.070Z,101371.22
2022-12-24T22:19:53.400Z,101378.75
2022-12-24T22:22:22.591Z,101407.06
2022-12-24T22:24:50.458Z,101431.28
2022-12-24T22:27:18.183Z,101429.81
2022-12-24T22:29:45.913Z,101432.72
2022-12-24T22:32:13.680Z,101437.41
2022-12-24T22:34:41.429Z,101439.91
2022-12-24T22:37:09.193Z,101431.66
2022-12-24T22:39:39.099Z,101430.25
2022-12-24T22:42:06.955Z,101434.56
2022-12-24T22:44:34.706Z,101431.41
2022-12-24T22:47:02.449Z,101455.94
2022-12-24T22:49:30.173Z,101465.16
2022-12-24T22:51:58.689Z,101479.75
2022-12-24T22:54:26.917Z,101483.59
2022-12-24T22:56:56.007Z,101510.94
2022-12-24T22:59:23.872Z,101480.88
2022-12-24T23:01:52.588Z,101473.41
2022-12-24T23:04:20.853Z,101465.66
2022-12-24T23:06:49.193Z,101444.00
2022-12-24T23:09:17.627Z,101414.19
2022-12-24T23:11:46.097Z,101405.53
2022-12-24T23:14:36.317Z,101410.19
2022-12-24T23:17:04.620Z,101431.31
2022-12-24T23:19:33.567Z,101431.13
2022-12-24T23:22:02.032Z,101419.34
2022-12-24T23:24:30.427Z,101411.72
2022-12-24T23:27:01.475Z,101420.81
2022-12-24T23:29:31.052Z,101398.44
2022-12-24T23:31:59.168Z,101387.25
2022-12-24T23:34:27.097Z,101412.16
2022-12-24T23:36:54.859Z,101419.47
2022-12-24T23:39:22.731Z,101408.84
2022-12-24T23:41:50.456Z,101405.03
2022-12-24T23:44:18.186Z,101400.00
2022-12-24T23:46:47.321Z,101374.59
2022-12-24T23:49:15.737Z,101369.38
2022-12-24T23:51:43.604Z,101323.94
2022-12-24T23:54:11.369Z,101308.75
2022-12-24T23:56:39.200Z,101275.75
2022-12-24T23:59:06.930Z,101281.78
